Aviation Digital Data Service (ADDS)

Output produced by METARs form (0549 UTC 19 March 2019)
found at http://www.aviationweather.gov/metar/data/
 
METAR text: VTCC 190530Z 10004KT 7000 FEW035 35/19 Q1012 NOSIG
Conditions at: VTCC (CHIANG MAI(CIV/A, TH) observed 0530 UTC 19 March 2019
Temperature: 35.0°C (95°F)
Dewpoint: 19.0°C (66°F) [RH = 39%]
Pressure (altimeter): 29.88 inches Hg (1012.0 mb)
Winds: from the E (100 degrees) at 5 MPH (4 knots; 2.1 m/s)
Visibility: 4 miles ( 7 km)
Ceiling: at least 12,000 feet AGL
Clouds: few clouds at 3500 feet AGL
Weather: no significant weather observed at this time

METAR text: VTCC 190500Z 18005KT 7000 NSC 34/19 Q1013 NOSIG
Conditions at: VTCC (CHIANG MAI(CIV/A, TH) observed 0500 UTC 19 March 2019
Temperature: 34.0°C (93°F)
Dewpoint: 19.0°C (66°F) [RH = 41%]
Pressure (altimeter): 29.91 inches Hg (1013.0 mb)
Winds: from the S (180 degrees) at 6 MPH (5 knots; 2.6 m/s)
Visibility: 4 miles ( 7 km)
Ceiling: at least 12,000 feet AGL
Clouds: sky clear below 12,000 feet AGL
Weather: no significant weather observed at this time

METAR text: VTCC 190430Z 19007KT 110V260 7000 NSC 33/19 Q1014 NOSIG
Conditions at: VTCC (CHIANG MAI(CIV/A, TH) observed 0430 UTC 19 March 2019
Temperature: 33.0°C (91°F)
Dewpoint: 19.0°C (66°F) [RH = 44%]
Pressure (altimeter): 29.94 inches Hg (1014.0 mb)
Winds: from the S (190 degrees) at 8 MPH (7 knots; 3.6 m/s)
Visibility: 4 miles ( 7 km)
Ceiling: at least 12,000 feet AGL
Clouds: sky clear below 12,000 feet AGL
Weather: no significant weather observed at this time

METAR text: VTCC 190400Z 18008KT 7000 NSC 32/19 Q1014 NOSIG
Conditions at: VTCC (CHIANG MAI(CIV/A, TH) observed 0400 UTC 19 March 2019
Temperature: 32.0°C (90°F)
Dewpoint: 19.0°C (66°F) [RH = 46%]
Pressure (altimeter): 29.94 inches Hg (1014.0 mb)
Winds: from the S (180 degrees) at 9 MPH (8 knots; 4.1 m/s)
Visibility: 4 miles ( 7 km)
Ceiling: at least 12,000 feet AGL
Clouds: sky clear below 12,000 feet AGL
Weather: no significant weather observed at this time

METAR text: VTCC 190330Z 22005KT 6000 NSC 32/18 Q1015 NOSIG
Conditions at: VTCC (CHIANG MAI(CIV/A, TH) observed 0330 UTC 19 March 2019
Temperature: 32.0°C (90°F)
Dewpoint: 18.0°C (64°F) [RH = 43%]
Pressure (altimeter): 29.97 inches Hg (1015.0 mb)
Winds: from the SW (220 degrees) at 6 MPH (5 knots; 2.6 m/s)
Visibility: 4 miles ( 6 km)
Ceiling: at least 12,000 feet AGL
Clouds: sky clear below 12,000 feet AGL
Weather: no significant weather observed at this time

METAR text: VTCC 190300Z 24003KT 5000 HZ NSC 32/18 Q1015 NOSIG
Conditions at: VTCC (CHIANG MAI(CIV/A, TH) observed 0300 UTC 19 March 2019
Temperature: 32.0°C (90°F)
Dewpoint: 18.0°C (64°F) [RH = 43%]
Pressure (altimeter): 29.97 inches Hg (1015.0 mb)
Winds: from the WSW (240 degrees) at 3 MPH (3 knots; 1.5 m/s)
Visibility: 3 miles ( 5 km)
Ceiling: at least 12,000 feet AGL
Clouds: sky clear below 12,000 feet AGL
Weather: HZ  (haze)

METAR text: VTCC 190230Z VRB02KT 5000 HZ NSC 30/18 Q1015 NOSIG
Conditions at: VTCC (CHIANG MAI(CIV/A, TH) observed 0230 UTC 19 March 2019
Temperature: 30.0°C (86°F)
Dewpoint: 18.0°C (64°F) [RH = 49%]
Pressure (altimeter): 29.97 inches Hg (1015.0 mb)
Winds: variable direction winds at 2 MPH (2 knots; 1.0 m/s)
Visibility: 3 miles ( 5 km)
Ceiling: at least 12,000 feet AGL
Clouds: sky clear below 12,000 feet AGL
Weather: HZ  (haze)

METAR text: VTCC 190200Z VRB02KT 5000 NSC 29/19 Q1015 NOSIG
Conditions at: VTCC (CHIANG MAI(CIV/A, TH) observed 0200 UTC 19 March 2019
Temperature: 29.0°C (84°F)
Dewpoint: 19.0°C (66°F) [RH = 55%]
Pressure (altimeter): 29.97 inches Hg (1015.0 mb)
Winds: variable direction winds at 2 MPH (2 knots; 1.0 m/s)
Visibility: 3 miles ( 5 km)
Ceiling: at least 12,000 feet AGL
Clouds: sky clear below 12,000 feet AGL
Weather: no significant weather observed at this time

METAR text: VTCC 190130Z VRB02KT 6000 NSC 27/19 Q1014 NOSIG
Conditions at: VTCC (CHIANG MAI(CIV/A, TH) observed 0130 UTC 19 March 2019
Temperature: 27.0°C (81°F)
Dewpoint: 19.0°C (66°F) [RH = 62%]
Pressure (altimeter): 29.94 inches Hg (1014.0 mb)
Winds: variable direction winds at 2 MPH (2 knots; 1.0 m/s)
Visibility: 4 miles ( 6 km)
Ceiling: at least 12,000 feet AGL
Clouds: sky clear below 12,000 feet AGL
Weather: no significant weather observed at this time

METAR text: VTCC 190100Z VRB01KT 7000 FEW035 26/18 Q1014 NOSIG
Conditions at: VTCC (CHIANG MAI(CIV/A, TH) observed 0100 UTC 19 March 2019
Temperature: 26.0°C (79°F)
Dewpoint: 18.0°C (64°F) [RH = 61%]
Pressure (altimeter): 29.94 inches Hg (1014.0 mb)
Winds: variable direction winds at 1 MPH (1 knots; 0.5 m/s)
Visibility: 4 miles ( 7 km)
Ceiling: at least 12,000 feet AGL
Clouds: few clouds at 3500 feet AGL
Weather: no significant weather observed at this time

METAR text: VTCC 190030Z 00000KT 7000 FEW035 24/18 Q1013 NOSIG
Conditions at: VTCC (CHIANG MAI(CIV/A, TH) observed 0030 UTC 19 March 2019
Temperature: 24.0°C (75°F)
Dewpoint: 18.0°C (64°F) [RH = 69%]
Pressure (altimeter): 29.91 inches Hg (1013.0 mb)
Winds: calm
Visibility: 4 miles ( 7 km)
Ceiling: at least 12,000 feet AGL
Clouds: few clouds at 3500 feet AGL
Weather: no significant weather observed at this time

METAR text: VTCC 190000Z 00000KT 5000 HZ FEW035 22/18 Q103 NOSIG
Conditions at: VTCC (CHIANG MAI(CIV/A, TH) observed 0000 UTC 19 March 2019
Temperature: 22.0°C (72°F)
Dewpoint: 18.0°C (64°F) [RH = 78%]
Pressure (altimeter): missing
Winds: calm
Visibility: 3 miles ( 5 km)
Ceiling: at least 12,000 feet AGL
Clouds: few clouds at 3500 feet AGL
Weather: HZ  (haze)

METAR text: VTCC 182330Z 00000KT 5000 HZ FEW035 23/17 Q1012 NOSIG
Conditions at: VTCC (CHIANG MAI(CIV/A, TH) observed 2330 UTC 18 March 2019
Temperature: 23.0°C (73°F)
Dewpoint: 17.0°C (63°F) [RH = 69%]
Pressure (altimeter): 29.88 inches Hg (1012.0 mb)
Winds: calm
Visibility: 3 miles ( 5 km)
Ceiling: at least 12,000 feet AGL
Clouds: few clouds at 3500 feet AGL
Weather: HZ  (haze)

METAR text: VTCC 182300Z 00000KT 6000 SCT035 23/17 Q1012 NOSIG
Conditions at: VTCC (CHIANG MAI(CIV/A, TH) observed 2300 UTC 18 March 2019
Temperature: 23.0°C (73°F)
Dewpoint: 17.0°C (63°F) [RH = 69%]
Pressure (altimeter): 29.88 inches Hg (1012.0 mb)
Winds: calm
Visibility: 4 miles ( 6 km)
Ceiling: at least 12,000 feet AGL
Clouds: scattered clouds at 3500 feet AGL
Weather: no significant weather observed at this time

METAR text: VTCC 182230Z 00000KT 6000 SCT035 22/18 Q1011 NOSIG
Conditions at: VTCC (CHIANG MAI(CIV/A, TH) observed 2230 UTC 18 March 2019
Temperature: 22.0°C (72°F)
Dewpoint: 18.0°C (64°F) [RH = 78%]
Pressure (altimeter): 29.85 inches Hg (1011.0 mb)
Winds: calm
Visibility: 4 miles ( 6 km)
Ceiling: at least 12,000 feet AGL
Clouds: scattered clouds at 3500 feet AGL
Weather: no significant weather observed at this time

METAR text: VTCC 182200Z 00000KT 6000 SCT035 23/18 Q1011 NOSIG
Conditions at: VTCC (CHIANG MAI(CIV/A, TH) observed 2200 UTC 18 March 2019
Temperature: 23.0°C (73°F)
Dewpoint: 18.0°C (64°F) [RH = 73%]
Pressure (altimeter): 29.85 inches Hg (1011.0 mb)
Winds: calm
Visibility: 4 miles ( 6 km)
Ceiling: at least 12,000 feet AGL
Clouds: scattered clouds at 3500 feet AGL
Weather: no significant weather observed at this time

METAR text: VTCC 182130Z 00000KT 6000 SCT035 23/18 Q1011 NOSIG
Conditions at: VTCC (CHIANG MAI(CIV/A, TH) observed 2130 UTC 18 March 2019
Temperature: 23.0°C (73°F)
Dewpoint: 18.0°C (64°F) [RH = 73%]
Pressure (altimeter): 29.85 inches Hg (1011.0 mb)
Winds: calm
Visibility: 4 miles ( 6 km)
Ceiling: at least 12,000 feet AGL
Clouds: scattered clouds at 3500 feet AGL
Weather: no significant weather observed at this time

METAR text: VTCC 182100Z 00000KT 6000 SCT035 24/18 Q1011 NOSIG
Conditions at: VTCC (CHIANG MAI(CIV/A, TH) observed 2100 UTC 18 March 2019
Temperature: 24.0°C (75°F)
Dewpoint: 18.0°C (64°F) [RH = 69%]
Pressure (altimeter): 29.85 inches Hg (1011.0 mb)
Winds: calm
Visibility: 4 miles ( 6 km)
Ceiling: at least 12,000 feet AGL
Clouds: scattered clouds at 3500 feet AGL
Weather: no significant weather observed at this time

METAR text: VTCC 182030Z 00000KT 6000 SCT035 24/18 Q1011 NOSIG
Conditions at: VTCC (CHIANG MAI(CIV/A, TH) observed 2030 UTC 18 March 2019
Temperature: 24.0°C (75°F)
Dewpoint: 18.0°C (64°F) [RH = 69%]
Pressure (altimeter): 29.85 inches Hg (1011.0 mb)
Winds: calm
Visibility: 4 miles ( 6 km)
Ceiling: at least 12,000 feet AGL
Clouds: scattered clouds at 3500 feet AGL
Weather: no significant weather observed at this time

METAR text: VTCC 182000Z 00000KT 6000 SCT035 24/18 Q1011 NOSIG
Conditions at: VTCC (CHIANG MAI(CIV/A, TH) observed 2000 UTC 18 March 2019
Temperature: 24.0°C (75°F)
Dewpoint: 18.0°C (64°F) [RH = 69%]
Pressure (altimeter): 29.85 inches Hg (1011.0 mb)
Winds: calm
Visibility: 4 miles ( 6 km)
Ceiling: at least 12,000 feet AGL
Clouds: scattered clouds at 3500 feet AGL
Weather: no significant weather observed at this time

METAR text: VTCC 181930Z 00000KT 6000 SCT035 25/17 Q1011 NOSIG
Conditions at: VTCC (CHIANG MAI(CIV/A, TH) observed 1930 UTC 18 March 2019
Temperature: 25.0°C (77°F)
Dewpoint: 17.0°C (63°F) [RH = 61%]
Pressure (altimeter): 29.85 inches Hg (1011.0 mb)
Winds: calm
Visibility: 4 miles ( 6 km)
Ceiling: at least 12,000 feet AGL
Clouds: scattered clouds at 3500 feet AGL
Weather: no significant weather observed at this time

METAR text: VTCC 181900Z 00000KT 5000 HZ NSC 25/17 Q1012 NOSIG
Conditions at: VTCC (CHIANG MAI(CIV/A, TH) observed 1900 UTC 18 March 2019
Temperature: 25.0°C (77°F)
Dewpoint: 17.0°C (63°F) [RH = 61%]
Pressure (altimeter): 29.88 inches Hg (1012.0 mb)
Winds: calm
Visibility: 3 miles ( 5 km)
Ceiling: at least 12,000 feet AGL
Clouds: sky clear below 12,000 feet AGL
Weather: HZ  (haze)

METAR text: VTCC 181830Z 13004KT 5000 HZ NSC 27/17 Q1012 NOSIG
Conditions at: VTCC (CHIANG MAI(CIV/A, TH) observed 1830 UTC 18 March 2019
Temperature: 27.0°C (81°F)
Dewpoint: 17.0°C (63°F) [RH = 54%]
Pressure (altimeter): 29.88 inches Hg (1012.0 mb)
Winds: from the SE (130 degrees) at 5 MPH (4 knots; 2.1 m/s)
Visibility: 3 miles ( 5 km)
Ceiling: at least 12,000 feet AGL
Clouds: sky clear below 12,000 feet AGL
Weather: HZ  (haze)

METAR text: VTCC 181800Z 12003KT 5000 HZ NSC 27/17 Q1012 NOSIG
Conditions at: VTCC (CHIANG MAI(CIV/A, TH) observed 1800 UTC 18 March 2019
Temperature: 27.0°C (81°F)
Dewpoint: 17.0°C (63°F) [RH = 54%]
Pressure (altimeter): 29.88 inches Hg (1012.0 mb)
Winds: from the ESE (120 degrees) at 3 MPH (3 knots; 1.5 m/s)
Visibility: 3 miles ( 5 km)
Ceiling: at least 12,000 feet AGL
Clouds: sky clear below 12,000 feet AGL
Weather: HZ  (haze)

METAR text: VTCC 181730Z 120034KT 5000 HZ NSC 28/16 Q1013 NOSIG
Conditions at: VTCC (CHIANG MAI(CIV/A, TH) observed 1730 UTC 18 March 2019
Temperature: 28.0°C (82°F)
Dewpoint: 16.0°C (61°F) [RH = 48%]
Pressure (altimeter): 29.91 inches Hg (1013.0 mb)
Winds: from the ESE (120 degrees) at 39 MPH (34 knots; 17.5 m/s)
Visibility: 3 miles ( 5 km)
Ceiling: at least 12,000 feet AGL
Clouds: sky clear below 12,000 feet AGL
Weather: HZ  (haze)

METAR text: VTCC 181700Z 120034KT 5000 HZ NSC 28/16 Q1013 NOSIG
Conditions at: VTCC (CHIANG MAI(CIV/A, TH) observed 1700 UTC 18 March 2019
Temperature: 28.0°C (82°F)
Dewpoint: 16.0°C (61°F) [RH = 48%]
Pressure (altimeter): 29.91 inches Hg (1013.0 mb)
Winds: from the ESE (120 degrees) at 39 MPH (34 knots; 17.5 m/s)
Visibility: 3 miles ( 5 km)
Ceiling: at least 12,000 feet AGL
Clouds: sky clear below 12,000 feet AGL
Weather: HZ  (haze)

METAR text: VTCC 181630Z 260034KT 5000 HZ NSC 28/17 Q1013 NOSIG
Conditions at: VTCC (CHIANG MAI(CIV/A, TH) observed 1630 UTC 18 March 2019
Temperature: 28.0°C (82°F)
Dewpoint: 17.0°C (63°F) [RH = 51%]
Pressure (altimeter): 29.91 inches Hg (1013.0 mb)
Winds: from the W (260 degrees) at 39 MPH (34 knots; 17.5 m/s)
Visibility: 3 miles ( 5 km)
Ceiling: at least 12,000 feet AGL
Clouds: sky clear below 12,000 feet AGL
Weather: HZ  (haze)

METAR text: VTCC 181600Z 25004KT 5000 HZ NSC 28/18 Q1013 NOSIG
Conditions at: VTCC (CHIANG MAI(CIV/A, TH) observed 1600 UTC 18 March 2019
Temperature: 28.0°C (82°F)
Dewpoint: 18.0°C (64°F) [RH = 55%]
Pressure (altimeter): 29.91 inches Hg (1013.0 mb)
Winds: from the WSW (250 degrees) at 5 MPH (4 knots; 2.1 m/s)
Visibility: 3 miles ( 5 km)
Ceiling: at least 12,000 feet AGL
Clouds: sky clear below 12,000 feet AGL
Weather: HZ  (haze)

METAR text: VTCC 181530Z 21005KT 5000 HZ NSC 29/19 Q1013 NOSIG
Conditions at: VTCC (CHIANG MAI(CIV/A, TH) observed 1530 UTC 18 March 2019
Temperature: 29.0°C (84°F)
Dewpoint: 19.0°C (66°F) [RH = 55%]
Pressure (altimeter): 29.91 inches Hg (1013.0 mb)
Winds: from the SSW (210 degrees) at 6 MPH (5 knots; 2.6 m/s)
Visibility: 3 miles ( 5 km)
Ceiling: at least 12,000 feet AGL
Clouds: sky clear below 12,000 feet AGL
Weather: HZ  (haze)

METAR text: VTCC 181500Z 15010KT 5000 HZ NSC 30/18 Q1012 NOSIG
Conditions at: VTCC (CHIANG MAI(CIV/A, TH) observed 1500 UTC 18 March 2019
Temperature: 30.0°C (86°F)
Dewpoint: 18.0°C (64°F) [RH = 49%]
Pressure (altimeter): 29.88 inches Hg (1012.0 mb)
Winds: from the SSE (150 degrees) at 12 MPH (10 knots; 5.1 m/s)
Visibility: 3 miles ( 5 km)
Ceiling: at least 12,000 feet AGL
Clouds: sky clear below 12,000 feet AGL
Weather: HZ  (haze)

METAR text: VTCC 181430Z 33004KT 5000 HZ NSC 30/16 Q1011 NOSIG
Conditions at: VTCC (CHIANG MAI(CIV/A, TH) observed 1430 UTC 18 March 2019
Temperature: 30.0°C (86°F)
Dewpoint: 16.0°C (61°F) [RH = 43%]
Pressure (altimeter): 29.85 inches Hg (1011.0 mb)
Winds: from the NNW (330 degrees) at 5 MPH (4 knots; 2.1 m/s)
Visibility: 3 miles ( 5 km)
Ceiling: at least 12,000 feet AGL
Clouds: sky clear below 12,000 feet AGL
Weather: HZ  (haze)

METAR text: VTCC 181400Z 13006KT 5000 HZ NSC 31/16 Q1011 NOSIG
Conditions at: VTCC (CHIANG MAI(CIV/A, TH) observed 1400 UTC 18 March 2019
Temperature: 31.0°C (88°F)
Dewpoint: 16.0°C (61°F) [RH = 40%]
Pressure (altimeter): 29.85 inches Hg (1011.0 mb)
Winds: from the SE (130 degrees) at 7 MPH (6 knots; 3.1 m/s)
Visibility: 3 miles ( 5 km)
Ceiling: at least 12,000 feet AGL
Clouds: sky clear below 12,000 feet AGL
Weather: HZ  (haze)

METAR text: VTCC 181330Z 00000KT 5000 HZ NSC 30/15 Q1011 NOSIG
Conditions at: VTCC (CHIANG MAI(CIV/A, TH) observed 1330 UTC 18 March 2019
Temperature: 30.0°C (86°F)
Dewpoint: 15.0°C (59°F) [RH = 40%]
Pressure (altimeter): 29.85 inches Hg (1011.0 mb)
Winds: calm
Visibility: 3 miles ( 5 km)
Ceiling: at least 12,000 feet AGL
Clouds: sky clear below 12,000 feet AGL
Weather: HZ  (haze)

METAR text: VTCC 181300Z 00000KT 5000 HZ NSC 30/15 Q1010 NOSIG
Conditions at: VTCC (CHIANG MAI(CIV/A, TH) observed 1300 UTC 18 March 2019
Temperature: 30.0°C (86°F)
Dewpoint: 15.0°C (59°F) [RH = 40%]
Pressure (altimeter): 29.82 inches Hg (1010.0 mb)
Winds: calm
Visibility: 3 miles ( 5 km)
Ceiling: at least 12,000 feet AGL
Clouds: sky clear below 12,000 feet AGL
Weather: HZ  (haze)

METAR text: VTCC 181230Z 00000KT 5000 HZ NSC 31/14 Q1009 NOSIG
Conditions at: VTCC (CHIANG MAI(CIV/A, TH) observed 1230 UTC 18 March 2019
Temperature: 31.0°C (88°F)
Dewpoint: 14.0°C (57°F) [RH = 36%]
Pressure (altimeter): 29.79 inches Hg (1009.0 mb)
Winds: calm
Visibility: 3 miles ( 5 km)
Ceiling: at least 12,000 feet AGL
Clouds: sky clear below 12,000 feet AGL
Weather: HZ  (haze)

METAR text: VTCC 181200Z 30004KT 5000 HZ FEW035 32/15 Q1009 NOSIG
Conditions at: VTCC (CHIANG MAI(CIV/A, TH) observed 1200 UTC 18 March 2019
Temperature: 32.0°C (90°F)
Dewpoint: 15.0°C (59°F) [RH = 36%]
Pressure (altimeter): 29.79 inches Hg (1009.0 mb)
Winds: from the WNW (300 degrees) at 5 MPH (4 knots; 2.1 m/s)
Visibility: 3 miles ( 5 km)
Ceiling: at least 12,000 feet AGL
Clouds: few clouds at 3500 feet AGL
Weather: HZ  (haze)

METAR text: VTCC 181130Z 00000KT 4000 HZ FEW035 34/14 Q1009 NOSIG
Conditions at: VTCC (CHIANG MAI(CIV/A, TH) observed 1130 UTC 18 March 2019
Temperature: 34.0°C (93°F)
Dewpoint: 14.0°C (57°F) [RH = 30%]
Pressure (altimeter): 29.79 inches Hg (1009.0 mb)
Winds: calm
Visibility: 2.49 miles (4.01 km)
Ceiling: at least 12,000 feet AGL
Clouds: few clouds at 3500 feet AGL
Weather: HZ  (haze)

METAR text: VTCC 181100Z 17003KT 4000 HZ FEW035 36/12 Q1009 NOSIG
Conditions at: VTCC (CHIANG MAI(CIV/A, TH) observed 1100 UTC 18 March 2019
Temperature: 36.0°C (97°F)
Dewpoint: 12.0°C (54°F) [RH = 24%]
Pressure (altimeter): 29.79 inches Hg (1009.0 mb)
Winds: from the S (170 degrees) at 3 MPH (3 knots; 1.5 m/s)
Visibility: 2.49 miles (4.01 km)
Ceiling: at least 12,000 feet AGL
Clouds: few clouds at 3500 feet AGL
Weather: HZ  (haze)

METAR text: VTCC 181030Z 12003KT 4000 HZ FEW035 36/12 Q1009 NOSIG
Conditions at: VTCC (CHIANG MAI(CIV/A, TH) observed 1030 UTC 18 March 2019
Temperature: 36.0°C (97°F)
Dewpoint: 12.0°C (54°F) [RH = 24%]
Pressure (altimeter): 29.79 inches Hg (1009.0 mb)
Winds: from the ESE (120 degrees) at 3 MPH (3 knots; 1.5 m/s)
Visibility: 2.49 miles (4.01 km)
Ceiling: at least 12,000 feet AGL
Clouds: few clouds at 3500 feet AGL
Weather: HZ  (haze)

METAR text: VTCC 181000Z 00000KT 4000 HZ FEW035 37/13 Q1009 NOSIG
Conditions at: VTCC (CHIANG MAI(CIV/A, TH) observed 1000 UTC 18 March 2019
Temperature: 37.0°C (99°F)
Dewpoint: 13.0°C (55°F) [RH = 24%]
Pressure (altimeter): 29.79 inches Hg (1009.0 mb)
Winds: calm
Visibility: 2.49 miles (4.01 km)
Ceiling: at least 12,000 feet AGL
Clouds: few clouds at 3500 feet AGL
Weather: HZ  (haze)

METAR text: VTCC 180930Z 15003KT 4000 HZ FEW035 38/13 Q1009 NOSIG
Conditions at: VTCC (CHIANG MAI(CIV/A, TH) observed 0930 UTC 18 March 2019
Temperature: 38.0°C (100°F)
Dewpoint: 13.0°C (55°F) [RH = 23%]
Pressure (altimeter): 29.79 inches Hg (1009.0 mb)
Winds: from the SSE (150 degrees) at 3 MPH (3 knots; 1.5 m/s)
Visibility: 2.49 miles (4.01 km)
Ceiling: at least 12,000 feet AGL
Clouds: few clouds at 3500 feet AGL
Weather: HZ  (haze)

METAR text: VTCC 180900Z 15005KT 5000 HZ NSC 37/13 Q1009 NOSIG
Conditions at: VTCC (CHIANG MAI(CIV/A, TH) observed 0900 UTC 18 March 2019
Temperature: 37.0°C (99°F)
Dewpoint: 13.0°C (55°F) [RH = 24%]
Pressure (altimeter): 29.79 inches Hg (1009.0 mb)
Winds: from the SSE (150 degrees) at 6 MPH (5 knots; 2.6 m/s)
Visibility: 3 miles ( 5 km)
Ceiling: at least 12,000 feet AGL
Clouds: sky clear below 12,000 feet AGL
Weather: HZ  (haze)

METAR text: VTCC 180830Z 11005KT 5000 HZ NSC 38/14 Q1010 NOSIG
Conditions at: VTCC (CHIANG MAI(CIV/A, TH) observed 0830 UTC 18 March 2019
Temperature: 38.0°C (100°F)
Dewpoint: 14.0°C (57°F) [RH = 24%]
Pressure (altimeter): 29.82 inches Hg (1010.0 mb)
Winds: from the ESE (110 degrees) at 6 MPH (5 knots; 2.6 m/s)
Visibility: 3 miles ( 5 km)
Ceiling: at least 12,000 feet AGL
Clouds: sky clear below 12,000 feet AGL
Weather: HZ  (haze)

METAR text: VTCC 180800Z 11004KT 5000 HZ NSC 38/14 Q1010 NOSIG
Conditions at: VTCC (CHIANG MAI(CIV/A, TH) observed 0800 UTC 18 March 2019
Temperature: 38.0°C (100°F)
Dewpoint: 14.0°C (57°F) [RH = 24%]
Pressure (altimeter): 29.82 inches Hg (1010.0 mb)
Winds: from the ESE (110 degrees) at 5 MPH (4 knots; 2.1 m/s)
Visibility: 3 miles ( 5 km)
Ceiling: at least 12,000 feet AGL
Clouds: sky clear below 12,000 feet AGL
Weather: HZ  (haze)

METAR text: VTCC 180730Z 17004KT 5000 HZ NSC 38/15 Q1011 NOSIG
Conditions at: VTCC (CHIANG MAI(CIV/A, TH) observed 0730 UTC 18 March 2019
Temperature: 38.0°C (100°F)
Dewpoint: 15.0°C (59°F) [RH = 26%]
Pressure (altimeter): 29.85 inches Hg (1011.0 mb)
Winds: from the S (170 degrees) at 5 MPH (4 knots; 2.1 m/s)
Visibility: 3 miles ( 5 km)
Ceiling: at least 12,000 feet AGL
Clouds: sky clear below 12,000 feet AGL
Weather: HZ  (haze)

METAR text: VTCC 180700Z 08003KT 4000 HZ NSC 37/15 Q1012 NOSIG
Conditions at: VTCC (CHIANG MAI(CIV/A, TH) observed 0700 UTC 18 March 2019
Temperature: 37.0°C (99°F)
Dewpoint: 15.0°C (59°F) [RH = 27%]
Pressure (altimeter): 29.88 inches Hg (1012.0 mb)
Winds: from the E (80 degrees) at 3 MPH (3 knots; 1.5 m/s)
Visibility: 2.49 miles (4.01 km)
Ceiling: at least 12,000 feet AGL
Clouds: sky clear below 12,000 feet AGL
Weather: HZ  (haze)

METAR text: VTCC 180630Z 16005KT 4000 HZ NSC 37/16 Q1013 NOSIG
Conditions at: VTCC (CHIANG MAI(CIV/A, TH) observed 0630 UTC 18 March 2019
Temperature: 37.0°C (99°F)
Dewpoint: 16.0°C (61°F) [RH = 29%]
Pressure (altimeter): 29.91 inches Hg (1013.0 mb)
Winds: from the SSE (160 degrees) at 6 MPH (5 knots; 2.6 m/s)
Visibility: 2.49 miles (4.01 km)
Ceiling: at least 12,000 feet AGL
Clouds: sky clear below 12,000 feet AGL
Weather: HZ  (haze)

METAR text: VTCC 180600Z 18005KT 4000 HZ NSC 36/16 Q1014 NOSIG
Conditions at: VTCC (CHIANG MAI(CIV/A, TH) observed 0600 UTC 18 March 2019
Temperature: 36.0°C (97°F)
Dewpoint: 16.0°C (61°F) [RH = 31%]
Pressure (altimeter): 29.94 inches Hg (1014.0 mb)
Winds: from the S (180 degrees) at 6 MPH (5 knots; 2.6 m/s)
Visibility: 2.49 miles (4.01 km)
Ceiling: at least 12,000 feet AGL
Clouds: sky clear below 12,000 feet AGL
Weather: HZ  (haze)

METAR text: VTCC 180530Z 14005KT 4000 HZ NSC 35/16 Q1014 NOSIG
Conditions at: VTCC (CHIANG MAI(CIV/A, TH) observed 0530 UTC 18 March 2019
Temperature: 35.0°C (95°F)
Dewpoint: 16.0°C (61°F) [RH = 32%]
Pressure (altimeter): 29.94 inches Hg (1014.0 mb)
Winds: from the SE (140 degrees) at 6 MPH (5 knots; 2.6 m/s)
Visibility: 2.49 miles (4.01 km)
Ceiling: at least 12,000 feet AGL
Clouds: sky clear below 12,000 feet AGL
Weather: HZ  (haze)

METAR text: VTCC 180500Z 15004KT 4000 HZ NSC 34/15 Q1015 NOSIG
Conditions at: VTCC (CHIANG MAI(CIV/A, TH) observed 0500 UTC 18 March 2019
Temperature: 34.0°C (93°F)
Dewpoint: 15.0°C (59°F) [RH = 32%]
Pressure (altimeter): 29.97 inches Hg (1015.0 mb)
Winds: from the SSE (150 degrees) at 5 MPH (4 knots; 2.1 m/s)
Visibility: 2.49 miles (4.01 km)
Ceiling: at least 12,000 feet AGL
Clouds: sky clear below 12,000 feet AGL
Weather: HZ  (haze)

METAR text: VTCC 180430Z 17004KT 3000 HZ NSC 33/16 Q1016 NOSIG
Conditions at: VTCC (CHIANG MAI(CIV/A, TH) observed 0430 UTC 18 March 2019
Temperature: 33.0°C (91°F)
Dewpoint: 16.0°C (61°F) [RH = 36%]
Pressure (altimeter): 30.00 inches Hg (1016.0 mb)
Winds: from the S (170 degrees) at 5 MPH (4 knots; 2.1 m/s)
Visibility: 1.86 miles (2.99 km)
Ceiling: at least 12,000 feet AGL
Clouds: sky clear below 12,000 feet AGL
Weather: HZ  (haze)

METAR text: VTCC 180400Z 21005KT 3000 HZ NSC 31/15 Q1016 NOSIG
Conditions at: VTCC (CHIANG MAI(CIV/A, TH) observed 0400 UTC 18 March 2019
Temperature: 31.0°C (88°F)
Dewpoint: 15.0°C (59°F) [RH = 38%]
Pressure (altimeter): 30.00 inches Hg (1016.0 mb)
Winds: from the SSW (210 degrees) at 6 MPH (5 knots; 2.6 m/s)
Visibility: 1.86 miles (2.99 km)
Ceiling: at least 12,000 feet AGL
Clouds: sky clear below 12,000 feet AGL
Weather: HZ  (haze)

METAR text: VTCC 180330Z 22005KT 3000 HZ NSC 30/17 Q1017 NOSIG
Conditions at: VTCC (CHIANG MAI(CIV/A, TH) observed 0330 UTC 18 March 2019
Temperature: 30.0°C (86°F)
Dewpoint: 17.0°C (63°F) [RH = 46%]
Pressure (altimeter): 30.03 inches Hg (1017.0 mb)
Winds: from the SW (220 degrees) at 6 MPH (5 knots; 2.6 m/s)
Visibility: 1.86 miles (2.99 km)
Ceiling: at least 12,000 feet AGL
Clouds: sky clear below 12,000 feet AGL
Weather: HZ  (haze)

METAR text: VTCC 180300Z 20003KT 4000 HZ NSC 30/16 Q1017 NOSIG
Conditions at: VTCC (CHIANG MAI(CIV/A, TH) observed 0300 UTC 18 March 2019
Temperature: 30.0°C (86°F)
Dewpoint: 16.0°C (61°F) [RH = 43%]
Pressure (altimeter): 30.03 inches Hg (1017.0 mb)
Winds: from the SSW (200 degrees) at 3 MPH (3 knots; 1.5 m/s)
Visibility: 2.49 miles (4.01 km)
Ceiling: at least 12,000 feet AGL
Clouds: sky clear below 12,000 feet AGL
Weather: HZ  (haze)

METAR text: VTCC 180230Z 00000KT 4000 HZ NSC 29/16 Q1017 NOSIG
Conditions at: VTCC (CHIANG MAI(CIV/A, TH) observed 0230 UTC 18 March 2019
Temperature: 29.0°C (84°F)
Dewpoint: 16.0°C (61°F) [RH = 45%]
Pressure (altimeter): 30.03 inches Hg (1017.0 mb)
Winds: calm
Visibility: 2.49 miles (4.01 km)
Ceiling: at least 12,000 feet AGL
Clouds: sky clear below 12,000 feet AGL
Weather: HZ  (haze)

METAR text: VTCC 180200Z 00000KT 4000 HZ NSC 27/16 Q1017 NOSIG
Conditions at: VTCC (CHIANG MAI(CIV/A, TH) observed 0200 UTC 18 March 2019
Temperature: 27.0°C (81°F)
Dewpoint: 16.0°C (61°F) [RH = 51%]
Pressure (altimeter): 30.03 inches Hg (1017.0 mb)
Winds: calm
Visibility: 2.49 miles (4.01 km)
Ceiling: at least 12,000 feet AGL
Clouds: sky clear below 12,000 feet AGL
Weather: HZ  (haze)

METAR text: VTCC 180130Z 00000KT 4000 HZ NSC 26/16 Q1016 NOSIG
Conditions at: VTCC (CHIANG MAI(CIV/A, TH) observed 0130 UTC 18 March 2019
Temperature: 26.0°C (79°F)
Dewpoint: 16.0°C (61°F) [RH = 54%]
Pressure (altimeter): 30.00 inches Hg (1016.0 mb)
Winds: calm
Visibility: 2.49 miles (4.01 km)
Ceiling: at least 12,000 feet AGL
Clouds: sky clear below 12,000 feet AGL
Weather: HZ  (haze)

METAR text: VTCC 180100Z VRB02KT 4000 BR NSC 24/17 Q1016 NOSIG
Conditions at: VTCC (CHIANG MAI(CIV/A, TH) observed 0100 UTC 18 March 2019
Temperature: 24.0°C (75°F)
Dewpoint: 17.0°C (63°F) [RH = 65%]
Pressure (altimeter): 30.00 inches Hg (1016.0 mb)
Winds: variable direction winds at 2 MPH (2 knots; 1.0 m/s)
Visibility: 2.49 miles (4.01 km)
Ceiling: at least 12,000 feet AGL
Clouds: sky clear below 12,000 feet AGL
Weather: BR  (mist)

METAR text: VTCC 180030Z VRB02KT 5000 BR NSC 22/16 Q1015 NOSIG
Conditions at: VTCC (CHIANG MAI(CIV/A, TH) observed 0030 UTC 18 March 2019
Temperature: 22.0°C (72°F)
Dewpoint: 16.0°C (61°F) [RH = 69%]
Pressure (altimeter): 29.97 inches Hg (1015.0 mb)
Winds: variable direction winds at 2 MPH (2 knots; 1.0 m/s)
Visibility: 3 miles ( 5 km)
Ceiling: at least 12,000 feet AGL
Clouds: sky clear below 12,000 feet AGL
Weather: BR  (mist)

METAR text: VTCC 180000Z 00000KT 5000 BR NSC 21/16 Q1015 NOSIG
Conditions at: VTCC (CHIANG MAI(CIV/A, TH) observed 0000 UTC 18 March 2019
Temperature: 21.0°C (70°F)
Dewpoint: 16.0°C (61°F) [RH = 73%]
Pressure (altimeter): 29.97 inches Hg (1015.0 mb)
Winds: calm
Visibility: 3 miles ( 5 km)
Ceiling: at least 12,000 feet AGL
Clouds: sky clear below 12,000 feet AGL
Weather: BR  (mist)

METAR text: VTCC 172330Z 00000KT 5000 BR NSC 20/15 Q1014 NOSIG
Conditions at: VTCC (CHIANG MAI(CIV/A, TH) observed 2330 UTC 17 March 2019
Temperature: 20.0°C (68°F)
Dewpoint: 15.0°C (59°F) [RH = 73%]
Pressure (altimeter): 29.94 inches Hg (1014.0 mb)
Winds: calm
Visibility: 3 miles ( 5 km)
Ceiling: at least 12,000 feet AGL
Clouds: sky clear below 12,000 feet AGL
Weather: BR  (mist)

METAR text: VTCC 172300Z 00000KT 5000 BR NSC 20/16 Q1013 NOSIG
Conditions at: VTCC (CHIANG MAI(CIV/A, TH) observed 2300 UTC 17 March 2019
Temperature: 20.0°C (68°F)
Dewpoint: 16.0°C (61°F) [RH = 78%]
Pressure (altimeter): 29.91 inches Hg (1013.0 mb)
Winds: calm
Visibility: 3 miles ( 5 km)
Ceiling: at least 12,000 feet AGL
Clouds: sky clear below 12,000 feet AGL
Weather: BR  (mist)

METAR text: VTCC 172230Z 00000KT 5000 BR NSC 21/16 Q1013 NOSIG
Conditions at: VTCC (CHIANG MAI(CIV/A, TH) observed 2230 UTC 17 March 2019
Temperature: 21.0°C (70°F)
Dewpoint: 16.0°C (61°F) [RH = 73%]
Pressure (altimeter): 29.91 inches Hg (1013.0 mb)
Winds: calm
Visibility: 3 miles ( 5 km)
Ceiling: at least 12,000 feet AGL
Clouds: sky clear below 12,000 feet AGL
Weather: BR  (mist)

METAR text: VTCC 172200Z VRB02KT 6000 NSC 21/16 Q1013 NOSIG
Conditions at: VTCC (CHIANG MAI(CIV/A, TH) observed 2200 UTC 17 March 2019
Temperature: 21.0°C (70°F)
Dewpoint: 16.0°C (61°F) [RH = 73%]
Pressure (altimeter): 29.91 inches Hg (1013.0 mb)
Winds: variable direction winds at 2 MPH (2 knots; 1.0 m/s)
Visibility: 4 miles ( 6 km)
Ceiling: at least 12,000 feet AGL
Clouds: sky clear below 12,000 feet AGL
Weather: no significant weather observed at this time

METAR text: VTCC 172130Z 00000KT 6000 NSC 21/15 Q1012 NOSIG
Conditions at: VTCC (CHIANG MAI(CIV/A, TH) observed 2130 UTC 17 March 2019
Temperature: 21.0°C (70°F)
Dewpoint: 15.0°C (59°F) [RH = 69%]
Pressure (altimeter): 29.88 inches Hg (1012.0 mb)
Winds: calm
Visibility: 4 miles ( 6 km)
Ceiling: at least 12,000 feet AGL
Clouds: sky clear below 12,000 feet AGL
Weather: no significant weather observed at this time

METAR text: VTCC 172100Z VRB020KT 6000 NSC 22/15 Q1012 NOSIG
Conditions at: VTCC (CHIANG MAI(CIV/A, TH) observed 2100 UTC 17 March 2019
Temperature: 22.0°C (72°F)
Dewpoint: 15.0°C (59°F) [RH = 65%]
Pressure (altimeter): 29.88 inches Hg (1012.0 mb)
Winds: variable direction winds at 23 MPH (20 knots; 10.3 m/s)
Visibility: 4 miles ( 6 km)
Ceiling: at least 12,000 feet AGL
Clouds: sky clear below 12,000 feet AGL
Weather: no significant weather observed at this time

METAR text: VTCC 172030Z 00000KT 6000 NSC 22/16 Q1013 NOSIG
Conditions at: VTCC (CHIANG MAI(CIV/A, TH) observed 2030 UTC 17 March 2019
Temperature: 22.0°C (72°F)
Dewpoint: 16.0°C (61°F) [RH = 69%]
Pressure (altimeter): 29.91 inches Hg (1013.0 mb)
Winds: calm
Visibility: 4 miles ( 6 km)
Ceiling: at least 12,000 feet AGL
Clouds: sky clear below 12,000 feet AGL
Weather: no significant weather observed at this time

METAR text: VTCC 172000Z 00000KT 6000 NSC 22/16 Q1013 NOSIG
Conditions at: VTCC (CHIANG MAI(CIV/A, TH) observed 2000 UTC 17 March 2019
Temperature: 22.0°C (72°F)
Dewpoint: 16.0°C (61°F) [RH = 69%]
Pressure (altimeter): 29.91 inches Hg (1013.0 mb)
Winds: calm
Visibility: 4 miles ( 6 km)
Ceiling: at least 12,000 feet AGL
Clouds: sky clear below 12,000 feet AGL
Weather: no significant weather observed at this time

METAR text: VTCC 171930Z 00000KT 6000 NSC 23/15 Q1013 NOSIG
Conditions at: VTCC (CHIANG MAI(CIV/A, TH) observed 1930 UTC 17 March 2019
Temperature: 23.0°C (73°F)
Dewpoint: 15.0°C (59°F) [RH = 61%]
Pressure (altimeter): 29.91 inches Hg (1013.0 mb)
Winds: calm
Visibility: 4 miles ( 6 km)
Ceiling: at least 12,000 feet AGL
Clouds: sky clear below 12,000 feet AGL
Weather: no significant weather observed at this time

METAR text: VTCC 171900Z 00000KT 6000 NSC 23/15 Q1013 NOSIG
Conditions at: VTCC (CHIANG MAI(CIV/A, TH) observed 1900 UTC 17 March 2019
Temperature: 23.0°C (73°F)
Dewpoint: 15.0°C (59°F) [RH = 61%]
Pressure (altimeter): 29.91 inches Hg (1013.0 mb)
Winds: calm
Visibility: 4 miles ( 6 km)
Ceiling: at least 12,000 feet AGL
Clouds: sky clear below 12,000 feet AGL
Weather: no significant weather observed at this time

METAR text: VTCC 171830Z VRB01KT 6000 NSC 23/15 Q1013 NOSIG
Conditions at: VTCC (CHIANG MAI(CIV/A, TH) observed 1830 UTC 17 March 2019
Temperature: 23.0°C (73°F)
Dewpoint: 15.0°C (59°F) [RH = 61%]
Pressure (altimeter): 29.91 inches Hg (1013.0 mb)
Winds: variable direction winds at 1 MPH (1 knots; 0.5 m/s)
Visibility: 4 miles ( 6 km)
Ceiling: at least 12,000 feet AGL
Clouds: sky clear below 12,000 feet AGL
Weather: no significant weather observed at this time

METAR text: VTCC 171800Z 00000KT 6000 NSC 24/16 Q1014 NOSIG
Conditions at: VTCC (CHIANG MAI(CIV/A, TH) observed 1800 UTC 17 March 2019
Temperature: 24.0°C (75°F)
Dewpoint: 16.0°C (61°F) [RH = 61%]
Pressure (altimeter): 29.94 inches Hg (1014.0 mb)
Winds: calm
Visibility: 4 miles ( 6 km)
Ceiling: at least 12,000 feet AGL
Clouds: sky clear below 12,000 feet AGL
Weather: no significant weather observed at this time

Forecast for: VTCC (CHIANG MAI(CIV/A, TH)
Text: TAF VTCC 190500Z 1906/2012 18006KT 7000 FEW035
Forecast period: 0600 to 2100 UTC 19 March 2019
Forecast type: FROM: standard forecast or significant change
Winds: from the S (180 degrees) at 7 MPH (6 knots; 3.1 m/s)
Visibility: 4 miles (7 km)
Ceiling: at least 12,000 feet AGL
Clouds: few clouds at 3500 feet AGL
Weather: no significant weather forecast for this period
Text: BECMG 1921/1923 4000 BR NSC
Forecast period: 2100 UTC 19 March 2019 to 0300 UTC 20 March 2019
Forecast type: BECOMING: Conditions expected to become as follows by 2300 UTC 19 March 2019
Winds: from the S (180 degrees) at 7 MPH (6 knots; 3.1 m/s)
Visibility: 2.49 miles (4.01 km)
Ceiling: unknown
Clouds: missing
Weather: BR  (mist)
Text: BECMG 2003/2005 5000 HZ
Forecast period: 0300 to 1200 UTC 20 March 2019
Forecast type: BECOMING: Conditions expected to become as follows by 0500 UTC 20 March 2019
Winds: from the S (180 degrees) at 7 MPH (6 knots; 3.1 m/s)
Visibility: 3 miles (5 km)
Ceiling: unknown
Clouds: missing
Weather: HZ  (haze)